sensor_id;sensor_type;location;lat;lon;timestamp;temperature;humidity
20284;DHT22;10301;50.832;4.080;2024-02-23T00:01:15;6.00;98.80
20284;DHT22;10301;50.832;4.080;2024-02-23T00:03:41;5.90;99.00
20284;DHT22;10301;50.832;4.080;2024-02-23T00:06:06;5.90;98.10
20284;DHT22;10301;50.832;4.080;2024-02-23T00:08:34;5.90;97.40
20284;DHT22;10301;50.832;4.080;2024-02-23T00:10:59;5.90;97.20
20284;DHT22;10301;50.832;4.080;2024-02-23T00:13:25;5.80;97.80
20284;DHT22;10301;50.832;4.080;2024-02-23T00:15:51;5.80;97.80
20284;DHT22;10301;50.832;4.080;2024-02-23T00:18:17;5.80;97.20
20284;DHT22;10301;50.832;4.080;2024-02-23T00:20:42;5.80;97.10
20284;DHT22;10301;50.832;4.080;2024-02-23T00:23:08;5.80;97.20
20284;DHT22;10301;50.832;4.080;2024-02-23T00:25:34;5.80;97.70
20284;DHT22;10301;50.832;4.080;2024-02-23T00:27:59;5.90;99.90
20284;DHT22;10301;50.832;4.080;2024-02-23T00:30:25;5.80;99.90
20284;DHT22;10301;50.832;4.080;2024-02-23T00:32:51;5.60;99.90
20284;DHT22;10301;50.832;4.080;2024-02-23T00:35:17;5.40;99.90
20284;DHT22;10301;50.832;4.080;2024-02-23T00:37:42;5.40;99.90
20284;DHT22;10301;50.832;4.080;2024-02-23T00:40:09;5.30;99.90
20284;DHT22;10301;50.832;4.080;2024-02-23T00:42:35;5.30;99.90
20284;DHT22;10301;50.832;4.080;2024-02-23T00:45:01;5.30;99.90
20284;DHT22;10301;50.832;4.080;2024-02-23T00:47:27;5.50;99.90
20284;DHT22;10301;50.832;4.080;2024-02-23T00:49:53;5.60;99.90
20284;DHT22;10301;50.832;4.080;2024-02-23T00:52:18;5.60;99.90
20284;DHT22;10301;50.832;4.080;2024-02-23T00:54:44;5.70;99.90
20284;DHT22;10301;50.832;4.080;2024-02-23T00:57:10;5.60;99.90
20284;DHT22;10301;50.832;4.080;2024-02-23T00:59:36;5.40;99.90
20284;DHT22;10301;50.832;4.080;2024-02-23T01:02:02;5.30;99.90
20284;DHT22;10301;50.832;4.080;2024-02-23T01:04:28;5.30;99.90
20284;DHT22;10301;50.832;4.080;2024-02-23T01:06:53;5.30;99.90
20284;DHT22;10301;50.832;4.080;2024-02-23T01:09:19;5.20;99.90
20284;DHT22;10301;50.832;4.080;2024-02-23T01:11:49;5.20;99.90
20284;DHT22;10301;50.832;4.080;2024-02-23T01:14:15;5.30;99.90
20284;DHT22;10301;50.832;4.080;2024-02-23T01:16:40;5.30;99.90
20284;DHT22;10301;50.832;4.080;2024-02-23T01:19:06;5.30;99.90
20284;DHT22;10301;50.832;4.080;2024-02-23T01:21:31;5.30;99.90
20284;DHT22;10301;50.832;4.080;2024-02-23T01:23:57;5.40;99.90
20284;DHT22;10301;50.832;4.080;2024-02-23T01:26:23;5.40;99.90
20284;DHT22;10301;50.832;4.080;2024-02-23T01:28:49;5.40;99.90
20284;DHT22;10301;50.832;4.080;2024-02-23T01:31:15;5.40;99.90
20284;DHT22;10301;50.832;4.080;2024-02-23T01:33:40;5.30;99.90
20284;DHT22;10301;50.832;4.080;2024-02-23T01:36:07;5.40;99.90
20284;DHT22;10301;50.832;4.080;2024-02-23T01:38:33;5.50;99.90
20284;DHT22;10301;50.832;4.080;2024-02-23T01:40:59;5.50;99.90
20284;DHT22;10301;50.832;4.080;2024-02-23T01:43:25;5.50;99.90
20284;DHT22;10301;50.832;4.080;2024-02-23T01:45:51;5.60;99.90
20284;DHT22;10301;50.832;4.080;2024-02-23T01:48:17;5.50;99.90
20284;DHT22;10301;50.832;4.080;2024-02-23T01:50:44;5.60;99.90
20284;DHT22;10301;50.832;4.080;2024-02-23T01:53:10;5.70;99.90
20284;DHT22;10301;50.832;4.080;2024-02-23T01:55:40;5.60;99.90
20284;DHT22;10301;50.832;4.080;2024-02-23T01:58:08;5.60;99.90
20284;DHT22;10301;50.832;4.080;2024-02-23T02:00:35;5.50;99.90
20284;DHT22;10301;50.832;4.080;2024-02-23T02:03:00;5.40;99.90
20284;DHT22;10301;50.832;4.080;2024-02-23T02:05:27;5.50;99.90
20284;DHT22;10301;50.832;4.080;2024-02-23T02:07:55;5.50;99.90
20284;DHT22;10301;50.832;4.080;2024-02-23T02:10:25;5.50;99.90
20284;DHT22;10301;50.832;4.080;2024-02-23T02:12:50;5.30;99.90
20284;DHT22;10301;50.832;4.080;2024-02-23T02:15:16;5.30;99.90
20284;DHT22;10301;50.832;4.080;2024-02-23T02:17:42;5.30;99.90
20284;DHT22;10301;50.832;4.080;2024-02-23T02:20:11;5.40;99.90
20284;DHT22;10301;50.832;4.080;2024-02-23T02:22:39;5.50;99.90
20284;DHT22;10301;50.832;4.080;2024-02-23T02:25:05;5.60;99.90
20284;DHT22;10301;50.832;4.080;2024-02-23T02:27:31;5.60;99.90
20284;DHT22;10301;50.832;4.080;2024-02-23T02:29:57;5.60;99.90
20284;DHT22;10301;50.832;4.080;2024-02-23T02:32:23;5.60;99.90
20284;DHT22;10301;50.832;4.080;2024-02-23T02:34:49;5.60;99.90
20284;DHT22;10301;50.832;4.080;2024-02-23T02:37:14;5.70;99.90
20284;DHT22;10301;50.832;4.080;2024-02-23T02:39:40;5.70;99.90
20284;DHT22;10301;50.832;4.080;2024-02-23T02:42:06;5.70;99.90
20284;DHT22;10301;50.832;4.080;2024-02-23T02:44:32;5.80;99.90
20284;DHT22;10301;50.832;4.080;2024-02-23T02:46:58;5.70;99.90
20284;DHT22;10301;50.832;4.080;2024-02-23T02:49:24;5.70;99.90
20284;DHT22;10301;50.832;4.080;2024-02-23T02:51:50;5.70;99.90
20284;DHT22;10301;50.832;4.080;2024-02-23T02:54:16;5.70;99.90
20284;DHT22;10301;50.832;4.080;2024-02-23T02:56:47;5.70;99.90
20284;DHT22;10301;50.832;4.080;2024-02-23T02:59:13;5.70;99.90
20284;DHT22;10301;50.832;4.080;2024-02-23T03:01:39;5.80;99.90
20284;DHT22;10301;50.832;4.080;2024-02-23T03:04:05;5.70;99.90
20284;DHT22;10301;50.832;4.080;2024-02-23T03:06:30;5.70;99.90
20284;DHT22;10301;50.832;4.080;2024-02-23T03:08:56;5.70;99.90
20284;DHT22;10301;50.832;4.080;2024-02-23T03:11:22;5.70;99.90
20284;DHT22;10301;50.832;4.080;2024-02-23T03:13:47;5.60;99.90
20284;DHT22;10301;50.832;4.080;2024-02-23T03:16:17;5.70;99.90
20284;DHT22;10301;50.832;4.080;2024-02-23T03:18:43;5.70;99.90
20284;DHT22;10301;50.832;4.080;2024-02-23T03:21:09;5.70;99.90
20284;DHT22;10301;50.832;4.080;2024-02-23T03:23:35;5.60;99.90
20284;DHT22;10301;50.832;4.080;2024-02-23T03:26:01;5.70;99.90
20284;DHT22;10301;50.832;4.080;2024-02-23T03:28:27;5.70;99.90
20284;DHT22;10301;50.832;4.080;2024-02-23T03:30:53;5.80;99.90
20284;DHT22;10301;50.832;4.080;2024-02-23T03:33:19;5.70;99.90
20284;DHT22;10301;50.832;4.080;2024-02-23T03:35:44;5.80;99.90
20284;DHT22;10301;50.832;4.080;2024-02-23T03:38:10;5.90;99.90
20284;DHT22;10301;50.832;4.080;2024-02-23T03:40:36;6.00;99.90
20284;DHT22;10301;50.832;4.080;2024-02-23T03:43:02;6.00;99.90
20284;DHT22;10301;50.832;4.080;2024-02-23T03:45:28;6.10;99.90
20284;DHT22;10301;50.832;4.080;2024-02-23T03:47:54;6.00;99.90
20284;DHT22;10301;50.832;4.080;2024-02-23T03:50:19;6.00;99.90
20284;DHT22;10301;50.832;4.080;2024-02-23T03:52:45;5.90;99.90
20284;DHT22;10301;50.832;4.080;2024-02-23T03:55:11;5.80;99.90
20284;DHT22;10301;50.832;4.080;2024-02-23T03:57:37;6.00;99.90
20284;DHT22;10301;50.832;4.080;2024-02-23T04:00:03;6.00;99.90
20284;DHT22;10301;50.832;4.080;2024-02-23T04:02:29;6.00;99.90
20284;DHT22;10301;50.832;4.080;2024-02-23T04:04:54;5.90;99.90
20284;DHT22;10301;50.832;4.080;2024-02-23T04:07:20;5.90;99.90
20284;DHT22;10301;50.832;4.080;2024-02-23T04:09:46;5.90;99.90
20284;DHT22;10301;50.832;4.080;2024-02-23T04:12:18;5.90;99.90
20284;DHT22;10301;50.832;4.080;2024-02-23T04:14:45;5.90;99.90
20284;DHT22;10301;50.832;4.080;2024-02-23T04:17:11;5.80;99.90
20284;DHT22;10301;50.832;4.080;2024-02-23T04:19:37;5.70;99.90
20284;DHT22;10301;50.832;4.080;2024-02-23T04:22:04;5.70;99.90
20284;DHT22;10301;50.832;4.080;2024-02-23T04:24:29;5.70;99.90
20284;DHT22;10301;50.832;4.080;2024-02-23T04:26:55;5.70;99.90
20284;DHT22;10301;50.832;4.080;2024-02-23T04:29:21;5.70;99.90
20284;DHT22;10301;50.832;4.080;2024-02-23T04:31:46;5.70;99.90
20284;DHT22;10301;50.832;4.080;2024-02-23T04:34:12;5.90;99.90
20284;DHT22;10301;50.832;4.080;2024-02-23T04:36:37;5.80;99.90
20284;DHT22;10301;50.832;4.080;2024-02-23T04:39:03;5.80;99.90
20284;DHT22;10301;50.832;4.080;2024-02-23T04:41:29;5.80;99.90
20284;DHT22;10301;50.832;4.080;2024-02-23T04:43:55;5.80;99.90
20284;DHT22;10301;50.832;4.080;2024-02-23T04:46:27;5.70;99.90
20284;DHT22;10301;50.832;4.080;2024-02-23T04:48:53;5.80;99.90
20284;DHT22;10301;50.832;4.080;2024-02-23T04:51:19;5.80;99.90
20284;DHT22;10301;50.832;4.080;2024-02-23T04:53:44;5.70;99.90
20284;DHT22;10301;50.832;4.080;2024-02-23T04:56:11;5.60;99.90
20284;DHT22;10301;50.832;4.080;2024-02-23T04:58:37;5.60;99.90
20284;DHT22;10301;50.832;4.080;2024-02-23T05:01:06;5.60;99.90
20284;DHT22;10301;50.832;4.080;2024-02-23T05:03:32;5.60;99.90
20284;DHT22;10301;50.832;4.080;2024-02-23T05:05:58;5.60;99.90
20284;DHT22;10301;50.832;4.080;2024-02-23T05:08:23;5.60;99.90
20284;DHT22;10301;50.832;4.080;2024-02-23T05:10:50;5.60;99.90
20284;DHT22;10301;50.832;4.080;2024-02-23T05:13:16;5.70;99.90
20284;DHT22;10301;50.832;4.080;2024-02-23T05:15:42;5.70;99.90
20284;DHT22;10301;50.832;4.080;2024-02-23T05:18:07;5.80;99.90
20284;DHT22;10301;50.832;4.080;2024-02-23T05:20:33;5.60;99.90
20284;DHT22;10301;50.832;4.080;2024-02-23T05:22:59;5.60;99.90
20284;DHT22;10301;50.832;4.080;2024-02-23T05:25:24;5.60;99.90
20284;DHT22;10301;50.832;4.080;2024-02-23T05:27:51;5.60;99.90
20284;DHT22;10301;50.832;4.080;2024-02-23T05:30:17;5.70;99.90
20284;DHT22;10301;50.832;4.080;2024-02-23T05:32:42;5.70;99.90
20284;DHT22;10301;50.832;4.080;2024-02-23T05:35:08;5.70;99.90
20284;DHT22;10301;50.832;4.080;2024-02-23T05:37:35;5.90;99.90
20284;DHT22;10301;50.832;4.080;2024-02-23T05:40:01;6.00;98.90
20284;DHT22;10301;50.832;4.080;2024-02-23T05:42:30;5.90;98.60
20284;DHT22;10301;50.832;4.080;2024-02-23T05:44:55;5.70;99.90
20284;DHT22;10301;50.832;4.080;2024-02-23T05:47:21;5.70;99.90
20284;DHT22;10301;50.832;4.080;2024-02-23T05:49:47;5.80;99.90
20284;DHT22;10301;50.832;4.080;2024-02-23T05:52:13;5.80;99.90
20284;DHT22;10301;50.832;4.080;2024-02-23T05:54:38;5.70;99.90
20284;DHT22;10301;50.832;4.080;2024-02-23T05:57:04;5.60;99.90
20284;DHT22;10301;50.832;4.080;2024-02-23T05:59:30;5.60;99.90
20284;DHT22;10301;50.832;4.080;2024-02-23T06:01:55;5.60;99.90
20284;DHT22;10301;50.832;4.080;2024-02-23T06:04:24;5.50;99.90
20284;DHT22;10301;50.832;4.080;2024-02-23T06:06:50;5.60;99.90
20284;DHT22;10301;50.832;4.080;2024-02-23T06:09:15;5.50;99.90
20284;DHT22;10301;50.832;4.080;2024-02-23T06:11:41;5.60;99.90
20284;DHT22;10301;50.832;4.080;2024-02-23T06:14:07;5.70;99.90
20284;DHT22;10301;50.832;4.080;2024-02-23T06:16:34;5.70;99.90
20284;DHT22;10301;50.832;4.080;2024-02-23T06:18:59;5.70;99.90
20284;DHT22;10301;50.832;4.080;2024-02-23T06:21:26;5.70;99.90
20284;DHT22;10301;50.832;4.080;2024-02-23T06:23:52;5.80;99.90
20284;DHT22;10301;50.832;4.080;2024-02-23T06:26:18;5.90;99.90
20284;DHT22;10301;50.832;4.080;2024-02-23T06:28:43;5.90;99.90
20284;DHT22;10301;50.832;4.080;2024-02-23T06:31:10;6.00;99.90
20284;DHT22;10301;50.832;4.080;2024-02-23T06:33:35;5.90;99.90
20284;DHT22;10301;50.832;4.080;2024-02-23T06:36:01;6.00;99.90
20284;DHT22;10301;50.832;4.080;2024-02-23T06:38:28;6.00;99.90
20284;DHT22;10301;50.832;4.080;2024-02-23T06:40:54;6.00;99.90
20284;DHT22;10301;50.832;4.080;2024-02-23T06:43:21;6.10;99.90
20284;DHT22;10301;50.832;4.080;2024-02-23T06:45:47;6.00;99.10
20284;DHT22;10301;50.832;4.080;2024-02-23T06:48:13;6.10;99.70
20284;DHT22;10301;50.832;4.080;2024-02-23T06:50:38;6.20;98.40
20284;DHT22;10301;50.832;4.080;2024-02-23T06:53:04;6.20;98.40
20284;DHT22;10301;50.832;4.080;2024-02-23T06:55:33;6.20;99.40
20284;DHT22;10301;50.832;4.080;2024-02-23T06:57:59;6.20;98.80
20284;DHT22;10301;50.832;4.080;2024-02-23T07:00:24;6.20;99.00
20284;DHT22;10301;50.832;4.080;2024-02-23T07:02:50;6.30;98.90
20284;DHT22;10301;50.832;4.080;2024-02-23T07:05:16;6.30;98.30
20284;DHT22;10301;50.832;4.080;2024-02-23T07:07:42;6.30;98.20
20284;DHT22;10301;50.832;4.080;2024-02-23T07:10:08;6.20;97.60
20284;DHT22;10301;50.832;4.080;2024-02-23T07:12:35;6.30;98.50
20284;DHT22;10301;50.832;4.080;2024-02-23T07:15:00;6.40;98.30
20284;DHT22;10301;50.832;4.080;2024-02-23T07:17:27;6.40;97.80
20284;DHT22;10301;50.832;4.080;2024-02-23T07:19:53;6.50;96.40
20284;DHT22;10301;50.832;4.080;2024-02-23T07:22:19;6.60;97.10
20284;DHT22;10301;50.832;4.080;2024-02-23T07:24:46;6.70;94.70
20284;DHT22;10301;50.832;4.080;2024-02-23T07:27:12;6.60;95.20
20284;DHT22;10301;50.832;4.080;2024-02-23T07:29:37;6.50;95.60
20284;DHT22;10301;50.832;4.080;2024-02-23T07:32:03;6.50;96.60
20284;DHT22;10301;50.832;4.080;2024-02-23T07:34:30;6.60;96.00
20284;DHT22;10301;50.832;4.080;2024-02-23T07:36:57;6.80;95.10
20284;DHT22;10301;50.832;4.080;2024-02-23T07:39:22;6.60;95.10
20284;DHT22;10301;50.832;4.080;2024-02-23T07:41:48;6.60;95.00
20284;DHT22;10301;50.832;4.080;2024-02-23T07:44:13;6.70;94.90
20284;DHT22;10301;50.832;4.080;2024-02-23T07:46:39;6.80;94.80
20284;DHT22;10301;50.832;4.080;2024-02-23T07:49:05;6.80;97.20
20284;DHT22;10301;50.832;4.080;2024-02-23T07:51:35;6.50;99.90
20284;DHT22;10301;50.832;4.080;2024-02-23T07:54:01;6.50;99.90
20284;DHT22;10301;50.832;4.080;2024-02-23T07:56:27;6.50;99.90
20284;DHT22;10301;50.832;4.080;2024-02-23T07:58:54;6.50;99.90
20284;DHT22;10301;50.832;4.080;2024-02-23T08:01:19;6.50;99.90
20284;DHT22;10301;50.832;4.080;2024-02-23T08:03:45;6.30;99.90
20284;DHT22;10301;50.832;4.080;2024-02-23T08:06:11;6.20;99.90
20284;DHT22;10301;50.832;4.080;2024-02-23T08:08:38;6.20;99.90
20284;DHT22;10301;50.832;4.080;2024-02-23T08:11:04;6.20;99.90
20284;DHT22;10301;50.832;4.080;2024-02-23T08:13:30;6.30;99.90
20284;DHT22;10301;50.832;4.080;2024-02-23T08:15:57;6.20;99.90
20284;DHT22;10301;50.832;4.080;2024-02-23T08:18:23;6.10;99.90
20284;DHT22;10301;50.832;4.080;2024-02-23T08:20:49;6.10;99.90
20284;DHT22;10301;50.832;4.080;2024-02-23T08:23:15;6.10;99.90
20284;DHT22;10301;50.832;4.080;2024-02-23T08:25:41;6.20;99.90
20284;DHT22;10301;50.832;4.080;2024-02-23T08:28:07;6.10;99.90
20284;DHT22;10301;50.832;4.080;2024-02-23T08:30:33;6.10;99.90
20284;DHT22;10301;50.832;4.080;2024-02-23T08:32:59;6.10;99.90
20284;DHT22;10301;50.832;4.080;2024-02-23T08:35:25;6.10;99.90
20284;DHT22;10301;50.832;4.080;2024-02-23T08:37:51;6.00;99.90
20284;DHT22;10301;50.832;4.080;2024-02-23T08:40:16;6.00;99.90
20284;DHT22;10301;50.832;4.080;2024-02-23T08:42:42;6.20;99.90
20284;DHT22;10301;50.832;4.080;2024-02-23T08:45:08;6.10;99.90
20284;DHT22;10301;50.832;4.080;2024-02-23T08:47:35;6.20;99.90
20284;DHT22;10301;50.832;4.080;2024-02-23T08:50:01;6.20;99.90
20284;DHT22;10301;50.832;4.080;2024-02-23T08:52:27;6.20;99.90
20284;DHT22;10301;50.832;4.080;2024-02-23T08:54:53;6.20;99.90
20284;DHT22;10301;50.832;4.080;2024-02-23T08:57:18;6.20;99.90
20284;DHT22;10301;50.832;4.080;2024-02-23T08:59:48;6.30;99.90
20284;DHT22;10301;50.832;4.080;2024-02-23T09:02:14;6.40;99.90
20284;DHT22;10301;50.832;4.080;2024-02-23T09:04:40;6.50;99.90
20284;DHT22;10301;50.832;4.080;2024-02-23T09:07:07;6.60;99.90
20284;DHT22;10301;50.832;4.080;2024-02-23T09:09:32;6.70;99.90
20284;DHT22;10301;50.832;4.080;2024-02-23T09:11:58;6.80;99.90
20284;DHT22;10301;50.832;4.080;2024-02-23T09:14:24;6.70;99.90
20284;DHT22;10301;50.832;4.080;2024-02-23T09:16:51;6.80;99.90
20284;DHT22;10301;50.832;4.080;2024-02-23T09:19:17;6.80;99.90
20284;DHT22;10301;50.832;4.080;2024-02-23T09:21:44;6.80;99.90
20284;DHT22;10301;50.832;4.080;2024-02-23T09:24:09;7.00;99.90
20284;DHT22;10301;50.832;4.080;2024-02-23T09:26:35;7.00;99.90
20284;DHT22;10301;50.832;4.080;2024-02-23T09:29:01;7.00;99.90
20284;DHT22;10301;50.832;4.080;2024-02-23T09:31:26;7.00;99.90
20284;DHT22;10301;50.832;4.080;2024-02-23T09:33:54;7.20;99.90
20284;DHT22;10301;50.832;4.080;2024-02-23T09:36:20;7.10;99.90
20284;DHT22;10301;50.832;4.080;2024-02-23T09:38:47;7.20;99.90
20284;DHT22;10301;50.832;4.080;2024-02-23T09:41:20;7.20;99.90
20284;DHT22;10301;50.832;4.080;2024-02-23T09:43:47;7.30;99.90
20284;DHT22;10301;50.832;4.080;2024-02-23T09:46:17;7.30;99.90
20284;DHT22;10301;50.832;4.080;2024-02-23T09:48:44;7.40;99.90
20284;DHT22;10301;50.832;4.080;2024-02-23T09:51:13;7.50;99.90
20284;DHT22;10301;50.832;4.080;2024-02-23T09:53:40;7.60;99.90
20284;DHT22;10301;50.832;4.080;2024-02-23T09:56:08;7.50;99.90
20284;DHT22;10301;50.832;4.080;2024-02-23T09:58:35;7.50;99.90
20284;DHT22;10301;50.832;4.080;2024-02-23T10:01:04;7.60;99.90
20284;DHT22;10301;50.832;4.080;2024-02-23T10:03:30;7.60;99.90
20284;DHT22;10301;50.832;4.080;2024-02-23T10:05:57;7.80;99.90
20284;DHT22;10301;50.832;4.080;2024-02-23T10:08:23;7.80;99.90
20284;DHT22;10301;50.832;4.080;2024-02-23T10:10:48;7.80;99.90
20284;DHT22;10301;50.832;4.080;2024-02-23T10:13:19;7.90;99.90
20284;DHT22;10301;50.832;4.080;2024-02-23T10:15:49;7.90;99.90
20284;DHT22;10301;50.832;4.080;2024-02-23T10:18:16;7.90;99.90
20284;DHT22;10301;50.832;4.080;2024-02-23T10:20:42;7.90;99.90
20284;DHT22;10301;50.832;4.080;2024-02-23T10:23:08;7.80;99.90
20284;DHT22;10301;50.832;4.080;2024-02-23T10:25:34;7.80;99.90
20284;DHT22;10301;50.832;4.080;2024-02-23T10:28:05;7.90;99.90
20284;DHT22;10301;50.832;4.080;2024-02-23T10:30:31;8.10;99.90
20284;DHT22;10301;50.832;4.080;2024-02-23T10:32:57;8.10;99.90
20284;DHT22;10301;50.832;4.080;2024-02-23T10:35:24;8.30;97.00
20284;DHT22;10301;50.832;4.080;2024-02-23T10:37:51;8.40;96.50
20284;DHT22;10301;50.832;4.080;2024-02-23T10:40:18;8.20;96.20
20284;DHT22;10301;50.832;4.080;2024-02-23T10:42:46;8.20;98.00
20284;DHT22;10301;50.832;4.080;2024-02-23T10:45:21;8.30;96.30
20284;DHT22;10301;50.832;4.080;2024-02-23T10:47:50;8.30;95.20
20284;DHT22;10301;50.832;4.080;2024-02-23T10:50:17;8.40;93.70
20284;DHT22;10301;50.832;4.080;2024-02-23T10:52:45;8.30;93.60
20284;DHT22;10301;50.832;4.080;2024-02-23T10:55:14;8.40;91.70
20284;DHT22;10301;50.832;4.080;2024-02-23T10:57:40;8.50;91.10
20284;DHT22;10301;50.832;4.080;2024-02-23T11:00:08;8.40;91.40
20284;DHT22;10301;50.832;4.080;2024-02-23T11:02:45;8.40;91.30
20284;DHT22;10301;50.832;4.080;2024-02-23T11:05:12;8.50;88.00
20284;DHT22;10301;50.832;4.080;2024-02-23T11:07:39;8.50;88.30
20284;DHT22;10301;50.832;4.080;2024-02-23T11:10:05;8.40;90.00
20284;DHT22;10301;50.832;4.080;2024-02-23T11:12:31;8.40;91.70
20284;DHT22;10301;50.832;4.080;2024-02-23T11:14:59;8.50;91.10
20284;DHT22;10301;50.832;4.080;2024-02-23T11:17:32;8.30;92.80
20284;DHT22;10301;50.832;4.080;2024-02-23T11:20:02;8.30;94.40
20284;DHT22;10301;50.832;4.080;2024-02-23T11:22:33;8.10;99.70
20284;DHT22;10301;50.832;4.080;2024-02-23T11:25:03;8.20;99.90
20284;DHT22;10301;50.832;4.080;2024-02-23T11:27:32;8.10;99.90
20284;DHT22;10301;50.832;4.080;2024-02-23T11:30:06;8.10;99.90
20284;DHT22;10301;50.832;4.080;2024-02-23T11:32:47;8.40;98.50
20284;DHT22;10301;50.832;4.080;2024-02-23T11:35:17;8.50;94.40
20284;DHT22;10301;50.832;4.080;2024-02-23T11:37:55;8.50;93.20
20284;DHT22;10301;50.832;4.080;2024-02-23T11:40:26;8.60;93.30
20284;DHT22;10301;50.832;4.080;2024-02-23T11:42:54;8.70;93.00
20284;DHT22;10301;50.832;4.080;2024-02-23T11:45:19;8.70;93.50
20284;DHT22;10301;50.832;4.080;2024-02-23T11:47:45;8.80;93.80
20284;DHT22;10301;50.832;4.080;2024-02-23T11:50:11;9.00;90.20
20284;DHT22;10301;50.832;4.080;2024-02-23T11:52:37;9.30;71.20
20284;DHT22;10301;50.832;4.080;2024-02-23T11:55:03;9.20;56.20
20284;DHT22;10301;50.832;4.080;2024-02-23T11:57:31;9.20;28.00
20284;DHT22;10301;50.832;4.080;2024-02-23T11:59:57;9.20;23.70
20284;DHT22;10301;50.832;4.080;2024-02-23T12:02:24;9.50;19.90
20284;DHT22;10301;50.832;4.080;2024-02-23T12:04:49;9.30;18.60
20284;DHT22;10301;50.832;4.080;2024-02-23T12:07:15;9.40;19.60
20284;DHT22;10301;50.832;4.080;2024-02-23T12:09:41;9.30;25.20
20284;DHT22;10301;50.832;4.080;2024-02-23T12:12:07;9.20;30.20
20284;DHT22;10301;50.832;4.080;2024-02-23T12:14:37;9.20;40.20
20284;DHT22;10301;50.832;4.080;2024-02-23T12:17:04;9.10;40.20
20284;DHT22;10301;50.832;4.080;2024-02-23T12:19:32;9.30;48.30
20284;DHT22;10301;50.832;4.080;2024-02-23T12:22:01;9.40;30.20
20284;DHT22;10301;50.832;4.080;2024-02-23T12:24:27;9.20;18.40
20284;DHT22;10301;50.832;4.080;2024-02-23T12:26:55;8.90;21.10
20284;DHT22;10301;50.832;4.080;2024-02-23T12:29:20;8.90;16.90
20284;DHT22;10301;50.832;4.080;2024-02-23T12:31:46;9.20;20.90
20284;DHT22;10301;50.832;4.080;2024-02-23T12:34:12;9.30;6.60
20284;DHT22;10301;50.832;4.080;2024-02-23T12:36:39;9.50;2.40
20284;DHT22;10301;50.832;4.080;2024-02-23T12:39:05;9.60;1.00
20284;DHT22;10301;50.832;4.080;2024-02-23T12:41:31;9.60;6.10
20284;DHT22;10301;50.832;4.080;2024-02-23T12:43:56;9.90;1.00
20284;DHT22;10301;50.832;4.080;2024-02-23T12:46:22;10.00;1.00
20284;DHT22;10301;50.832;4.080;2024-02-23T12:48:49;10.00;1.00
20284;DHT22;10301;50.832;4.080;2024-02-23T12:51:15;9.90;1.00
20284;DHT22;10301;50.832;4.080;2024-02-23T12:53:41;9.80;1.00
20284;DHT22;10301;50.832;4.080;2024-02-23T12:56:12;9.80;1.00
20284;DHT22;10301;50.832;4.080;2024-02-23T12:58:40;9.70;5.10
20284;DHT22;10301;50.832;4.080;2024-02-23T13:01:07;9.60;1.00
20284;DHT22;10301;50.832;4.080;2024-02-23T13:03:34;9.70;1.00
20284;DHT22;10301;50.832;4.080;2024-02-23T13:06:00;9.70;1.00
20284;DHT22;10301;50.832;4.080;2024-02-23T13:08:26;9.70;1.00
20284;DHT22;10301;50.832;4.080;2024-02-23T13:10:53;9.70;1.00
20284;DHT22;10301;50.832;4.080;2024-02-23T13:13:20;9.50;1.00
20284;DHT22;10301;50.832;4.080;2024-02-23T13:15:46;9.40;1.00
20284;DHT22;10301;50.832;4.080;2024-02-23T13:18:13;9.90;1.00
20284;DHT22;10301;50.832;4.080;2024-02-23T13:20:39;9.80;1.00
20284;DHT22;10301;50.832;4.080;2024-02-23T13:23:05;9.90;1.00
20284;DHT22;10301;50.832;4.080;2024-02-23T13:25:34;9.80;1.00
20284;DHT22;10301;50.832;4.080;2024-02-23T13:27:59;9.80;1.00
20284;DHT22;10301;50.832;4.080;2024-02-23T13:30:25;9.80;1.00
20284;DHT22;10301;50.832;4.080;2024-02-23T13:32:52;9.70;1.00
20284;DHT22;10301;50.832;4.080;2024-02-23T13:35:17;9.70;1.00
20284;DHT22;10301;50.832;4.080;2024-02-23T13:37:43;9.60;1.00
20284;DHT22;10301;50.832;4.080;2024-02-23T13:40:10;9.60;1.00
20284;DHT22;10301;50.832;4.080;2024-02-23T13:42:39;9.70;1.00
20284;DHT22;10301;50.832;4.080;2024-02-23T13:45:06;9.80;1.00
20284;DHT22;10301;50.832;4.080;2024-02-23T13:47:32;9.80;1.00
20284;DHT22;10301;50.832;4.080;2024-02-23T13:49:58;9.80;1.00
20284;DHT22;10301;50.832;4.080;2024-02-23T13:52:23;9.90;1.00
20284;DHT22;10301;50.832;4.080;2024-02-23T13:54:49;10.30;1.00
20284;DHT22;10301;50.832;4.080;2024-02-23T13:57:15;10.20;1.00
20284;DHT22;10301;50.832;4.080;2024-02-23T13:59:40;9.90;1.00
20284;DHT22;10301;50.832;4.080;2024-02-23T14:02:06;9.80;1.00
20284;DHT22;10301;50.832;4.080;2024-02-23T14:04:32;9.80;1.00
20284;DHT22;10301;50.832;4.080;2024-02-23T14:06:58;10.10;1.00
20284;DHT22;10301;50.832;4.080;2024-02-23T14:09:24;10.10;1.00
20284;DHT22;10301;50.832;4.080;2024-02-23T14:11:49;10.10;1.00
20284;DHT22;10301;50.832;4.080;2024-02-23T14:14:15;10.00;1.00
20284;DHT22;10301;50.832;4.080;2024-02-23T14:16:42;10.20;1.00
20284;DHT22;10301;50.832;4.080;2024-02-23T14:19:07;10.10;1.00
20284;DHT22;10301;50.832;4.080;2024-02-23T14:21:33;9.80;1.00
20284;DHT22;10301;50.832;4.080;2024-02-23T14:24:01;9.70;1.00
20284;DHT22;10301;50.832;4.080;2024-02-23T14:26:27;9.50;1.00
20284;DHT22;10301;50.832;4.080;2024-02-23T14:28:53;9.50;1.00
20284;DHT22;10301;50.832;4.080;2024-02-23T14:31:19;9.30;1.00
20284;DHT22;10301;50.832;4.080;2024-02-23T14:33:45;9.20;1.00
20284;DHT22;10301;50.832;4.080;2024-02-23T14:36:10;9.20;15.20
20284;DHT22;10301;50.832;4.080;2024-02-23T14:38:36;9.00;41.00
20284;DHT22;10301;50.832;4.080;2024-02-23T14:41:02;9.00;49.20
20284;DHT22;10301;50.832;4.080;2024-02-23T14:43:27;8.80;52.60
20284;DHT22;10301;50.832;4.080;2024-02-23T14:45:57;9.00;53.90
20284;DHT22;10301;50.832;4.080;2024-02-23T14:48:22;8.90;30.10
20284;DHT22;10301;50.832;4.080;2024-02-23T14:50:48;8.90;28.00
20284;DHT22;10301;50.832;4.080;2024-02-23T14:53:15;9.10;25.00
20284;DHT22;10301;50.832;4.080;2024-02-23T14:55:40;9.10;17.10
20284;DHT22;10301;50.832;4.080;2024-02-23T14:58:06;9.10;26.10
20284;DHT22;10301;50.832;4.080;2024-02-23T15:00:32;9.30;28.30
20284;DHT22;10301;50.832;4.080;2024-02-23T15:02:59;9.50;7.40
20284;DHT22;10301;50.832;4.080;2024-02-23T15:05:24;9.50;1.00
20284;DHT22;10301;50.832;4.080;2024-02-23T15:07:50;9.40;1.00
20284;DHT22;10301;50.832;4.080;2024-02-23T15:10:16;9.40;1.00
20284;DHT22;10301;50.832;4.080;2024-02-23T15:12:42;9.50;1.00
20284;DHT22;10301;50.832;4.080;2024-02-23T15:15:08;9.70;1.00
20284;DHT22;10301;50.832;4.080;2024-02-23T15:17:33;9.90;1.00
20284;DHT22;10301;50.832;4.080;2024-02-23T15:19:59;9.90;1.00
20284;DHT22;10301;50.832;4.080;2024-02-23T15:22:25;9.60;1.00
20284;DHT22;10301;50.832;4.080;2024-02-23T15:24:51;9.70;1.00
20284;DHT22;10301;50.832;4.080;2024-02-23T15:27:18;9.80;1.00
20284;DHT22;10301;50.832;4.080;2024-02-23T15:29:43;10.00;1.00
20284;DHT22;10301;50.832;4.080;2024-02-23T15:32:09;10.00;1.00
20284;DHT22;10301;50.832;4.080;2024-02-23T15:34:38;9.90;1.00
20284;DHT22;10301;50.832;4.080;2024-02-23T15:37:04;9.80;1.00
20284;DHT22;10301;50.832;4.080;2024-02-23T15:39:30;10.00;1.00
20284;DHT22;10301;50.832;4.080;2024-02-23T15:41:56;10.10;1.00